Time;durP1;ratioP1;P1;durP2;ratioP2;P2;SDS_P1;SDS_P2;PMS_P1;PMS_P2;Temp;Humidity;BMP_temperature;BMP_pressure;BME280_temperature;BME280_humidity;BME280_pressure;Samples;Min_cycle;Max_cycle;Signal;HPM_P1;HPM_P2
2023/08/07 00:01:42;;;;;;;0.28;0.28;;;;;;;;;;5048341;28;20112;-88
2023/08/07 00:04:07;;;;;;;0.55;0.30;;;;;;;;;;5054964;28;20056;-88
2023/08/07 00:06:33;;;;;;;0.93;0.70;;;;;;;;;;5058218;28;20107;-89
2023/08/07 00:08:58;;;;;;;0.15;0.15;;;;;;;;;;5055994;28;20025;-88
2023/08/07 00:11:23;;;;;;;0.30;0.20;;;;;;;;;;5057545;28;20028;-88
2023/08/07 00:13:49;;;;;;;0.10;0.10;;;;;;;;;;5069309;28;20323;-89
2023/08/07 00:16:14;;;;;;;0.38;0.10;;;;;;;;;;5053002;28;20036;-89
2023/08/07 00:18:40;;;;;;;0.30;0.28;;;;;;;;;;5051226;28;20040;-88
2023/08/07 00:21:05;;;;;;;0.10;0.10;;;;;;;;;;5060842;28;20427;-83
2023/08/07 00:23:30;;;;;;;0.22;0.22;;;;;;;;;;5063179;28;20413;-86
2023/08/07 00:25:56;;;;;;;1.60;0.90;;;;;;;;;;5051187;28;20094;-91
2023/08/07 00:28:21;;;;;;;0.40;0.40;;;;;;;;;;5061619;28;20052;-87
2023/08/07 00:30:47;;;;;;;0.20;0.20;;;;;;;;;;5058985;28;20021;-90
2023/08/07 00:33:12;;;;;;;0.20;0.20;;;;;;;;;;5051504;28;20041;-88
2023/08/07 00:35:38;;;;;;;0.10;0.10;;;;;;;;;;5058716;28;20036;-88
2023/08/07 00:38:04;;;;;;;0.38;0.28;;;;;;;;;;5061922;28;20432;-90
2023/08/07 00:40:37;;;;;;;0.22;0.22;;;;;;;;;;5058176;28;20036;-88
2023/08/07 00:43:02;;;;;;;0.50;0.30;;;;;;;;;;5053176;28;20112;-89
2023/08/07 00:45:28;;;;;;;0.22;0.22;;;;;;;;;;5054172;28;20108;-87
2023/08/07 00:47:53;;;;;;;0.90;0.45;;;;;;;;;;5063576;28;20155;-88
2023/08/07 00:50:19;;;;;;;0.35;0.22;;;;;;;;;;5056150;28;20373;-89
2023/08/07 00:52:44;;;;;;;0.80;0.30;;;;;;;;;;5062549;28;20017;-88
2023/08/07 00:55:10;;;;;;;0.50;0.50;;;;;;;;;;5059029;28;20045;-88
2023/08/07 00:57:36;;;;;;;0.30;0.15;;;;;;;;;;5058334;28;20032;-85
2023/08/07 01:00:02;;;;;;;0.20;0.20;;;;;;;;;;5065829;28;20425;-89
2023/08/07 01:02:28;;;;;;;0.52;0.52;;;;;;;;;;5054799;28;20073;-89
2023/08/07 01:04:54;;;;;;;0.28;0.28;;;;;;;;;;5063590;28;20025;-90
2023/08/07 01:07:19;;;;;;;0.25;0.25;;;;;;;;;;5055253;28;20028;-88
2023/08/07 01:09:45;;;;;;;0.43;0.28;;;;;;;;;;5058164;28;20088;-87
2023/08/07 01:12:19;;;;;;;0.30;0.28;;;;;;;;;;5052194;28;20093;-88
2023/08/07 01:15:23;;;;;;;0.40;0.38;;;;;;;;;;5059119;28;20430;-87
2023/08/07 01:17:49;;;;;;;0.30;0.15;;;;;;;;;;5049594;28;20491;-88
2023/08/07 01:20:15;;;;;;;2.25;0.40;;;;;;;;;;5060792;28;20028;-88
2023/08/07 01:22:40;;;;;;;0.75;0.50;;;;;;;;;;5057260;28;20377;-89
2023/08/07 01:25:06;;;;;;;0.40;0.40;;;;;;;;;;5053553;28;20389;-88
2023/08/07 01:27:39;;;;;;;0.32;0.22;;;;;;;;;;5055208;28;20384;-88
2023/08/07 01:30:08;;;;;;;0.52;0.45;;;;;;;;;;5052943;28;20047;-89
2023/08/07 01:32:58;;;;;;;0.38;0.35;;;;;;;;;;5061109;28;21484;-89
2023/08/07 01:35:29;;;;;;;0.75;0.60;;;;;;;;;;5048979;28;20020;-85
2023/08/07 01:37:56;;;;;;;0.82;0.50;;;;;;;;;;5060682;28;20033;-87
2023/08/07 01:40:22;;;;;;;0.38;0.35;;;;;;;;;;5054651;28;20025;-86
2023/08/07 01:42:48;;;;;;;0.35;0.22;;;;;;;;;;5057735;28;20104;-88
2023/08/07 01:45:13;;;;;;;0.20;0.20;;;;;;;;;;5045548;28;20247;-87
2023/08/07 01:47:39;;;;;;;0.95;0.68;;;;;;;;;;5050152;28;20098;-87
2023/08/07 01:50:06;;;;;;;0.63;0.63;;;;;;;;;;5061667;28;20040;-89
2023/08/07 01:52:32;;;;;;;0.20;0.20;;;;;;;;;;5050498;28;20048;-90
2023/08/07 01:54:57;;;;;;;0.70;0.40;;;;;;;;;;5059705;28;20024;-89
2023/08/07 01:57:23;;;;;;;0.43;0.43;;;;;;;;;;5056793;28;20027;-88
2023/08/07 01:59:49;;;;;;;0.20;0.20;;;;;;;;;;5059767;28;20067;-85
2023/08/07 02:02:14;;;;;;;0.95;0.75;;;;;;;;;;5052018;28;20039;-85
2023/08/07 02:04:40;;;;;;;0.17;0.17;;;;;;;;;;5052569;28;20025;-87
2023/08/07 02:07:05;;;;;;;1.25;0.85;;;;;;;;;;5052357;28;20094;-87
2023/08/07 02:09:30;;;;;;;0.38;0.38;;;;;;;;;;5056572;28;20037;-87
2023/08/07 02:11:56;;;;;;;1.25;0.73;;;;;;;;;;5045797;28;20094;-86
2023/08/07 02:14:21;;;;;;;0.47;0.25;;;;;;;;;;5052459;28;20039;-87
2023/08/07 02:16:47;;;;;;;0.95;0.45;;;;;;;;;;5060085;28;20039;-87
2023/08/07 02:19:12;;;;;;;0.65;0.43;;;;;;;;;;5052316;28;20082;-87
2023/08/07 02:21:37;;;;;;;0.32;0.32;;;;;;;;;;5059787;28;20839;-87
2023/08/07 02:24:03;;;;;;;0.65;0.30;;;;;;;;;;5060404;28;20033;-87
2023/08/07 02:26:29;;;;;;;0.70;0.22;;;;;;;;;;5059065;28;20025;-87
2023/08/07 02:28:54;;;;;;;0.45;0.38;;;;;;;;;;5052736;28;20124;-87
2023/08/07 02:31:19;;;;;;;0.90;0.50;;;;;;;;;;5064215;28;20099;-86
2023/08/07 02:33:45;;;;;;;0.55;0.38;;;;;;;;;;5060267;28;20035;-87
2023/08/07 02:36:10;;;;;;;1.10;0.50;;;;;;;;;;5052806;28;20199;-89
2023/08/07 02:38:36;;;;;;;0.50;0.40;;;;;;;;;;5054562;28;20028;-86
2023/08/07 02:41:01;;;;;;;0.40;0.40;;;;;;;;;;5052798;28;20350;-88
2023/08/07 02:43:28;;;;;;;1.30;0.60;;;;;;;;;;5052783;28;20029;-88
2023/08/07 02:45:54;;;;;;;0.80;0.45;;;;;;;;;;5057584;28;20020;-90
2023/08/07 02:48:19;;;;;;;0.45;0.40;;;;;;;;;;5059741;28;20029;-89
2023/08/07 02:50:44;;;;;;;0.60;0.52;;;;;;;;;;5049539;28;20057;-87
2023/08/07 02:53:11;;;;;;;0.75;0.40;;;;;;;;;;5056612;28;20418;-89
2023/08/07 02:55:36;;;;;;;0.45;0.38;;;;;;;;;;5062806;28;20021;-90
2023/08/07 02:58:02;;;;;;;0.52;0.52;;;;;;;;;;5056337;28;20044;-89
2023/08/07 03:00:27;;;;;;;1.23;1.00;;;;;;;;;;5055572;28;20025;-90
2023/08/07 03:02:53;;;;;;;1.05;0.57;;;;;;;;;;5056469;28;20056;-90
2023/08/07 03:05:18;;;;;;;0.73;0.57;;;;;;;;;;5062786;28;20381;-90
2023/08/07 03:07:44;;;;;;;0.73;0.70;;;;;;;;;;5069596;28;20063;-88
2023/08/07 03:10:11;;;;;;;0.80;0.73;;;;;;;;;;5058682;28;20029;-87
2023/08/07 03:12:37;;;;;;;0.55;0.50;;;;;;;;;;5059699;28;20029;-89
2023/08/07 03:15:04;;;;;;;0.60;0.60;;;;;;;;;;5049336;28;20464;-87
2023/08/07 03:17:29;;;;;;;1.52;0.93;;;;;;;;;;5055773;28;20029;-86
2023/08/07 03:19:55;;;;;;;1.30;0.73;;;;;;;;;;5062621;28;20048;-87
2023/08/07 03:22:20;;;;;;;0.55;0.45;;;;;;;;;;5062876;28;20037;-89
2023/08/07 03:24:49;;;;;;;2.15;0.73;;;;;;;;;;5055206;28;20024;-91
2023/08/07 03:27:15;;;;;;;0.50;0.50;;;;;;;;;;5055788;28;20051;-88
2023/08/07 03:29:41;;;;;;;1.45;0.70;;;;;;;;;;5063761;28;20546;-88
2023/08/07 03:32:07;;;;;;;0.70;0.47;;;;;;;;;;5063383;28;20025;-88
2023/08/07 03:34:32;;;;;;;0.32;0.32;;;;;;;;;;5054504;28;20024;-89
2023/08/07 03:36:59;;;;;;;1.00;0.50;;;;;;;;;;5055421;28;20412;-89
2023/08/07 03:39:25;;;;;;;0.65;0.43;;;;;;;;;;5063766;28;20025;-88
2023/08/07 03:41:50;;;;;;;1.55;0.77;;;;;;;;;;5057017;28;20091;-88
2023/08/07 03:44:16;;;;;;;1.60;0.77;;;;;;;;;;5059943;28;20039;-91
2023/08/07 03:46:41;;;;;;;1.65;1.10;;;;;;;;;;5049849;28;20033;-90
2023/08/07 03:49:07;;;;;;;1.40;0.80;;;;;;;;;;5061062;28;20056;-91
2023/08/07 03:51:32;;;;;;;1.50;0.95;;;;;;;;;;5053149;28;20025;-89
2023/08/07 03:53:58;;;;;;;1.48;1.15;;;;;;;;;;5058254;28;20028;-88
2023/08/07 03:56:23;;;;;;;1.50;1.10;;;;;;;;;;5041537;28;20105;-90
2023/08/07 03:58:50;;;;;;;1.30;1.05;;;;;;;;;;5054175;28;20029;-91
2023/08/07 04:01:16;;;;;;;1.25;0.75;;;;;;;;;;5048901;28;20098;-90
2023/08/07 04:03:41;;;;;;;0.70;0.70;;;;;;;;;;5052159;28;20028;-86
2023/08/07 04:06:07;;;;;;;1.55;0.93;;;;;;;;;;5047721;28;20039;-84
2023/08/07 04:08:33;;;;;;;0.90;0.82;;;;;;;;;;5044664;28;20029;-79
2023/08/07 04:11:03;;;;;;;1.10;0.80;;;;;;;;;;5049312;28;20747;-79
2023/08/07 04:13:29;;;;;;;0.57;0.47;;;;;;;;;;5047339;28;20016;-82
2023/08/07 04:15:55;;;;;;;1.27;0.75;;;;;;;;;;5050553;28;20074;-85
2023/08/07 04:18:20;;;;;;;1.67;0.82;;;;;;;;;;5059470;28;20021;-85
2023/08/07 04:20:53;;;;;;;1.63;0.68;;;;;;;;;;5051439;28;20022;-79
2023/08/07 04:23:19;;;;;;;0.50;0.50;;;;;;;;;;5045537;28;20037;-81
2023/08/07 04:25:46;;;;;;;1.27;0.73;;;;;;;;;;5048079;28;20465;-81
2023/08/07 04:28:12;;;;;;;0.93;0.60;;;;;;;;;;5050130;28;20044;-84
2023/08/07 04:30:37;;;;;;;0.40;0.40;;;;;;;;;;5048234;28;20515;-81
2023/08/07 04:33:03;;;;;;;0.95;0.85;;;;;;;;;;5049966;28;20506;-84
2023/08/07 04:35:28;;;;;;;1.08;0.80;;;;;;;;;;5047114;28;20084;-83
2023/08/07 04:37:54;;;;;;;0.80;0.80;;;;;;;;;;5046843;28;20026;-81
2023/08/07 04:40:20;;;;;;;0.93;0.63;;;;;;;;;;5051074;28;21849;-87
2023/08/07 04:42:45;;;;;;;0.77;0.70;;;;;;;;;;5058425;28;20116;-84
2023/08/07 04:45:11;;;;;;;0.95;0.73;;;;;;;;;;5055608;28;20179;-85
2023/08/07 04:47:37;;;;;;;0.63;0.47;;;;;;;;;;5057456;28;20529;-86
2023/08/07 04:50:03;;;;;;;0.60;0.50;;;;;;;;;;5057665;28;20549;-86
2023/08/07 04:52:29;;;;;;;1.75;0.70;;;;;;;;;;5058176;28;20472;-85
2023/08/07 04:54:54;;;;;;;0.60;0.60;;;;;;;;;;5047973;28;20032;-85
2023/08/07 04:57:19;;;;;;;0.63;0.43;;;;;;;;;;5052378;28;20032;-86
2023/08/07 04:59:45;;;;;;;0.95;0.85;;;;;;;;;;5049863;28;20033;-86
2023/08/07 05:02:10;;;;;;;0.38;0.38;;;;;;;;;;5055358;28;20033;-85
2023/08/07 05:04:36;;;;;;;0.98;0.73;;;;;;;;;;5054511;28;20032;-85
2023/08/07 05:07:01;;;;;;;0.98;0.90;;;;;;;;;;5058575;28;20078;-86
2023/08/07 05:09:27;;;;;;;0.60;0.50;;;;;;;;;;5061575;28;20353;-88
2023/08/07 05:11:52;;;;;;;1.13;0.80;;;;;;;;;;5054920;28;20063;-85
2023/08/07 05:14:17;;;;;;;1.90;0.93;;;;;;;;;;5060047;28;20020;-85
2023/08/07 05:16:43;;;;;;;0.40;0.40;;;;;;;;;;5052686;28;20028;-84
2023/08/07 05:19:08;;;;;;;1.60;1.17;;;;;;;;;;5049822;28;20659;-87
2023/08/07 05:21:34;;;;;;;0.68;0.50;;;;;;;;;;5057147;28;20733;-86
2023/08/07 05:23:59;;;;;;;1.15;0.55;;;;;;;;;;5052783;28;20121;-81
2023/08/07 05:26:25;;;;;;;0.95;0.82;;;;;;;;;;5060181;28;20032;-85
2023/08/07 05:28:50;;;;;;;0.93;0.60;;;;;;;;;;5053522;28;20057;-83
2023/08/07 05:31:15;;;;;;;1.05;0.70;;;;;;;;;;5057494;28;20031;-86
2023/08/07 05:33:41;;;;;;;1.02;0.75;;;;;;;;;;5056042;28;20032;-84
2023/08/07 05:36:06;;;;;;;0.52;0.50;;;;;;;;;;5054610;28;20081;-85
2023/08/07 05:38:32;;;;;;;0.60;0.57;;;;;;;;;;5054268;28;20040;-86
2023/08/07 05:40:57;;;;;;;0.50;0.47;;;;;;;;;;5048795;28;20083;-83
2023/08/07 05:43:23;;;;;;;0.98;0.88;;;;;;;;;;5049467;28;20029;-84
2023/08/07 05:45:49;;;;;;;0.45;0.45;;;;;;;;;;5054800;28;20033;-84
2023/08/07 05:48:16;;;;;;;2.15;0.93;;;;;;;;;;5054083;28;21670;-83
2023/08/07 05:50:42;;;;;;;1.42;1.08;;;;;;;;;;5051519;28;20025;-83
2023/08/07 05:53:07;;;;;;;0.45;0.45;;;;;;;;;;5063606;28;20422;-84
2023/08/07 05:55:34;;;;;;;0.63;0.63;;;;;;;;;;5052368;28;20020;-83
2023/08/07 05:57:59;;;;;;;0.65;0.40;;;;;;;;;;5050053;28;20039;-85
2023/08/07 06:00:25;;;;;;;1.13;0.75;;;;;;;;;;5059881;28;20032;-84
2023/08/07 06:02:50;;;;;;;1.55;0.95;;;;;;;;;;5054789;28;20029;-83
2023/08/07 06:05:16;;;;;;;0.50;0.40;;;;;;;;;;5056595;28;20112;-83
2023/08/07 06:07:42;;;;;;;1.17;0.90;;;;;;;;;;5046968;28;20033;-85
2023/08/07 06:10:08;;;;;;;0.43;0.35;;;;;;;;;;5061528;28;20029;-84
2023/08/07 06:12:33;;;;;;;1.00;0.65;;;;;;;;;;5050859;28;20027;-85
2023/08/07 06:14:59;;;;;;;0.43;0.43;;;;;;;;;;5045490;28;20112;-85
2023/08/07 06:17:24;;;;;;;3.67;0.80;;;;;;;;;;5050862;28;20057;-81
2023/08/07 06:19:49;;;;;;;0.95;0.52;;;;;;;;;;5054970;28;20111;-83
2023/08/07 06:22:15;;;;;;;0.55;0.50;;;;;;;;;;5052314;28;20040;-87
2023/08/07 06:25:08;;;;;;;0.75;0.75;;;;;;;;;;5043696;28;20040;-83
2023/08/07 06:27:34;;;;;;;1.25;0.82;;;;;;;;;;5051655;28;20070;-85
2023/08/07 06:29:59;;;;;;;0.63;0.52;;;;;;;;;;5049477;28;20420;-84
2023/08/07 06:32:25;;;;;;;1.00;0.80;;;;;;;;;;5052949;28;20052;-84
2023/08/07 06:34:51;;;;;;;0.77;0.70;;;;;;;;;;5053672;28;20024;-84
2023/08/07 06:37:16;;;;;;;0.82;0.80;;;;;;;;;;5052249;28;20021;-82
2023/08/07 06:39:42;;;;;;;0.88;0.88;;;;;;;;;;5052975;28;20279;-83
2023/08/07 06:42:08;;;;;;;0.63;0.63;;;;;;;;;;5054186;28;20025;-83
2023/08/07 06:44:33;;;;;;;0.57;0.50;;;;;;;;;;5058896;28;20128;-84
2023/08/07 06:46:58;;;;;;;0.50;0.45;;;;;;;;;;5053707;28;20036;-83
2023/08/07 06:49:24;;;;;;;0.63;0.63;;;;;;;;;;5058844;28;20098;-85
2023/08/07 06:51:49;;;;;;;0.65;0.50;;;;;;;;;;5058439;28;20077;-81
2023/08/07 06:54:15;;;;;;;0.45;0.45;;;;;;;;;;5063372;28;20404;-86
2023/08/07 06:56:42;;;;;;;0.30;0.30;;;;;;;;;;5057029;28;20021;-84
2023/08/07 06:59:07;;;;;;;0.30;0.30;;;;;;;;;;5060188;28;20033;-84
2023/08/07 07:01:33;;;;;;;0.13;0.13;;;;;;;;;;5060272;28;20039;-83
2023/08/07 07:03:58;;;;;;;0.50;0.50;;;;;;;;;;5054870;28;20126;-84
2023/08/07 07:06:25;;;;;;;0.75;0.50;;;;;;;;;;5062687;28;20028;-80
2023/08/07 07:08:54;;;;;;;0.40;0.40;;;;;;;;;;5048236;28;20036;-83
2023/08/07 07:11:20;;;;;;;0.30;0.30;;;;;;;;;;5066765;28;20025;-83
2023/08/07 07:13:46;;;;;;;0.70;0.47;;;;;;;;;;5057079;28;20450;-84
2023/08/07 07:16:12;;;;;;;0.60;0.50;;;;;;;;;;5061623;28;20036;-84
2023/08/07 07:18:38;;;;;;;0.63;0.63;;;;;;;;;;5051855;28;20413;-84
2023/08/07 07:21:04;;;;;;;3.95;0.50;;;;;;;;;;5049046;28;20037;-84
2023/08/07 07:23:30;;;;;;;0.22;0.22;;;;;;;;;;5057068;28;20020;-85
2023/08/07 07:25:56;;;;;;;1.15;0.50;;;;;;;;;;5054905;28;20049;-85
2023/08/07 07:28:22;;;;;;;0.50;0.30;;;;;;;;;;5053890;28;20053;-83
2023/08/07 07:30:47;;;;;;;1.08;0.88;;;;;;;;;;5052195;28;20484;-84
2023/08/07 07:33:13;;;;;;;0.43;0.28;;;;;;;;;;5057081;28;20037;-87
2023/08/07 07:35:39;;;;;;;0.40;0.40;;;;;;;;;;5060109;28;20021;-86
2023/08/07 07:38:06;;;;;;;0.80;0.65;;;;;;;;;;5059522;28;20033;-88
2023/08/07 07:40:33;;;;;;;0.40;0.30;;;;;;;;;;5067870;28;20035;-89
2023/08/07 07:42:59;;;;;;;0.55;0.52;;;;;;;;;;5058111;28;20021;-88
2023/08/07 07:45:24;;;;;;;0.63;0.50;;;;;;;;;;5061043;28;20017;-87
2023/08/07 07:47:50;;;;;;;0.20;0.20;;;;;;;;;;5058538;28;20107;-86
2023/08/07 07:50:15;;;;;;;0.47;0.32;;;;;;;;;;5058481;28;20063;-86
2023/08/07 07:52:40;;;;;;;0.35;0.30;;;;;;;;;;5061288;28;20024;-87
2023/08/07 07:55:08;;;;;;;0.77;0.73;;;;;;;;;;5067917;28;20027;-90
2023/08/07 07:57:34;;;;;;;0.60;0.40;;;;;;;;;;5054146;28;20108;-87
2023/08/07 07:59:59;;;;;;;0.47;0.40;;;;;;;;;;5056858;28;20183;-90
2023/08/07 08:02:25;;;;;;;1.80;0.68;;;;;;;;;;5057750;28;20029;-86
2023/08/07 08:04:51;;;;;;;0.57;0.30;;;;;;;;;;5065108;28;20052;-86
2023/08/07 08:07:16;;;;;;;0.55;0.30;;;;;;;;;;5053964;28;20036;-90
2023/08/07 08:09:42;;;;;;;0.47;0.43;;;;;;;;;;5063934;28;20020;-90
2023/08/07 08:12:08;;;;;;;0.43;0.35;;;;;;;;;;5068319;28;20024;-88
2023/08/07 08:14:33;;;;;;;0.98;0.55;;;;;;;;;;5059599;28;20100;-85
2023/08/07 08:16:59;;;;;;;0.30;0.20;;;;;;;;;;5053900;28;20025;-86
2023/08/07 08:19:24;;;;;;;0.30;0.30;;;;;;;;;;5068047;28;20038;-86
2023/08/07 08:21:50;;;;;;;0.77;0.32;;;;;;;;;;5057837;28;20028;-87
2023/08/07 08:24:15;;;;;;;0.70;0.60;;;;;;;;;;5053714;28;20030;-87
2023/08/07 08:26:40;;;;;;;0.40;0.40;;;;;;;;;;5054914;28;20023;-87
2023/08/07 08:29:32;;;;;;;0.35;0.32;;;;;;;;;;5049638;28;20060;-89
2023/08/07 08:32:26;;;;;;;1.27;0.52;;;;;;;;;;5055027;28;20107;-82
2023/08/07 08:35:29;;;;;;;0.65;0.57;;;;;;;;;;5051175;28;20032;-83
2023/08/07 08:41:31;;;;;;;1.13;0.40;;;;;;;;;;5047475;28;20052;-87
2023/08/07 08:47:34;;;;;;;0.43;0.43;;;;;;;;;;5049199;28;20060;-87
2023/08/07 08:50:21;;;;;;;0.20;0.10;;;;;;;;;;5050311;28;20029;-85
2023/08/07 08:53:07;;;;;;;1.05;0.68;;;;;;;;;;5014408;28;20046;-87
2023/08/07 08:56:02;;;;;;;0.63;0.40;;;;;;;;;;5003223;28;20129;-85
2023/08/07 08:59:21;;;;;;;0.50;0.50;;;;;;;;;;4968461;28;20050;-89
2023/08/07 09:01:57;;;;;;;0.45;0.40;;;;;;;;;;4977782;28;20038;-88
2023/08/07 09:04:51;;;;;;;0.28;0.22;;;;;;;;;;4980985;28;20038;-83
2023/08/07 09:08:07;;;;;;;0.30;0.30;;;;;;;;;;4964425;28;20078;-85
2023/08/07 09:14:20;;;;;;;;;;;;;;;;;;;;;
2023/08/07 09:17:23;;;;;;;0.45;0.40;;;;;;;;;;4985497;28;20701;-86
2023/08/07 09:19:53;;;;;;;1.00;0.47;;;;;;;;;;4944435;28;20043;-86
2023/08/07 09:22:41;;;;;;;0.38;0.30;;;;;;;;;;4931878;28;20047;-85
2023/08/07 09:25:09;;;;;;;0.52;0.28;;;;;;;;;;4940909;29;20114;-85
2023/08/07 09:28:19;;;;;;;0.40;0.30;;;;;;;;;;4942870;29;20523;-87
2023/08/07 09:31:13;;;;;;;0.30;0.30;;;;;;;;;;4999783;28;20152;-89
2023/08/07 09:33:46;;;;;;;0.40;0.40;;;;;;;;;;4997112;28;20041;-85
2023/08/07 09:36:19;;;;;;;0.43;0.43;;;;;;;;;;5019854;28;20121;-86
2023/08/07 09:39:14;;;;;;;1.45;0.70;;;;;;;;;;5015360;28;20520;-86
2023/08/07 09:41:43;;;;;;;0.28;0.22;;;;;;;;;;5003579;28;20511;-89
2023/08/07 09:47:45;;;;;;;0.60;0.40;;;;;;;;;;4984852;28;20060;-87
2023/08/07 09:50:32;;;;;;;;;;;;;;;;;;5017711;28;20040;-87
2023/08/07 09:56:59;;;;;;;0.65;0.55;;;;;;;;;;5017381;28;20072;-86
2023/08/07 10:03:37;;;;;;;1.25;0.63;;;;;;;;;;4938747;28;20368;-86
2023/08/07 10:06:04;;;;;;;0.47;0.43;;;;;;;;;;5022202;28;20049;-89
2023/08/07 10:08:31;;;;;;;0.40;0.30;;;;;;;;;;5061124;28;20046;-83
2023/08/07 10:10:58;;;;;;;0.25;0.25;;;;;;;;;;5056113;28;20396;-86
2023/08/07 10:13:24;;;;;;;0.38;0.38;;;;;;;;;;5056062;28;20081;-84
2023/08/07 10:15:50;;;;;;;0.50;0.40;;;;;;;;;;5059111;28;20032;-85
2023/08/07 10:18:16;;;;;;;1.48;0.63;;;;;;;;;;5063813;28;20016;-88
2023/08/07 10:20:43;;;;;;;0.30;0.30;;;;;;;;;;5057607;28;20032;-90
2023/08/07 10:23:11;;;;;;;0.68;0.60;;;;;;;;;;5064160;28;20103;-87
2023/08/07 10:25:42;;;;;;;0.00;0.00;;;;;;;;;;5056434;28;20101;-86
2023/08/07 10:28:12;;;;;;;0.20;0.20;;;;;;;;;;5056999;28;20049;-85
2023/08/07 10:30:48;;;;;;;0.10;0.10;;;;;;;;;;5064204;28;20524;-91
2023/08/07 10:33:14;;;;;;;0.28;0.28;;;;;;;;;;5055204;28;20163;-87
2023/08/07 10:35:47;;;;;;;0.73;0.50;;;;;;;;;;5055926;28;20483;-84
2023/08/07 10:38:12;;;;;;;0.50;0.38;;;;;;;;;;5056176;28;20028;-85
2023/08/07 10:41:00;;;;;;;0.43;0.30;;;;;;;;;;5061349;28;20027;-87
2023/08/07 10:43:27;;;;;;;0.38;0.20;;;;;;;;;;5052560;28;20028;-86
2023/08/07 10:45:53;;;;;;;0.32;0.32;;;;;;;;;;5054003;28;20024;-85
2023/08/07 10:48:20;;;;;;;1.10;0.45;;;;;;;;;;5056013;28;20472;-87
2023/08/07 10:50:57;;;;;;;8.48;0.65;;;;;;;;;;5060433;28;20419;-85
2023/08/07 10:53:51;;;;;;;0.40;0.35;;;;;;;;;;5060782;28;20025;-84
2023/08/07 10:56:34;;;;;;;0.60;0.35;;;;;;;;;;5054988;28;20061;-85
2023/08/07 10:59:09;;;;;;;0.43;0.38;;;;;;;;;;5058824;28;20052;-85
2023/08/07 11:01:37;;;;;;;0.88;0.63;;;;;;;;;;5058176;28;20028;-85
2023/08/07 11:04:13;;;;;;;0.40;0.40;;;;;;;;;;5064483;28;20039;-85
2023/08/07 11:06:43;;;;;;;0.77;0.47;;;;;;;;;;5057023;28;20035;-84
2023/08/07 11:09:09;;;;;;;1.10;0.52;;;;;;;;;;5062808;28;20025;-86
2023/08/07 11:11:40;;;;;;;0.45;0.30;;;;;;;;;;5059904;28;20028;-86
2023/08/07 11:14:14;;;;;;;0.32;0.30;;;;;;;;;;5058577;28;20076;-87
2023/08/07 11:16:42;;;;;;;0.50;0.50;;;;;;;;;;5058048;28;20036;-85
2023/08/07 11:19:08;;;;;;;0.70;0.40;;;;;;;;;;5063275;28;20052;-85
2023/08/07 11:21:34;;;;;;;0.25;0.20;;;;;;;;;;5063916;28;20063;-84
2023/08/07 11:24:01;;;;;;;0.70;0.57;;;;;;;;;;5058903;28;20077;-89
2023/08/07 11:26:27;;;;;;;1.05;0.68;;;;;;;;;;5056518;28;20476;-88
2023/08/07 11:28:56;;;;;;;0.32;0.20;;;;;;;;;;5058347;28;20049;-86
2023/08/07 11:31:27;;;;;;;0.30;0.30;;;;;;;;;;5061538;28;20044;-86
2023/08/07 11:33:57;;;;;;;0.63;0.55;;;;;;;;;;5058015;28;20090;-84
2023/08/07 11:36:23;;;;;;;1.15;1.00;;;;;;;;;;5055292;28;20060;-89
2023/08/07 11:38:49;;;;;;;0.50;0.40;;;;;;;;;;5064773;28;20048;-84
2023/08/07 11:41:16;;;;;;;0.47;0.47;;;;;;;;;;5059422;28;20087;-85
2023/08/07 11:43:42;;;;;;;0.60;0.40;;;;;;;;;;5056701;28;20028;-86
2023/08/07 11:46:10;;;;;;;1.23;0.68;;;;;;;;;;5062050;28;20036;-86
2023/08/07 11:48:38;;;;;;;1.35;0.63;;;;;;;;;;5065934;28;20126;-86
2023/08/07 11:51:06;;;;;;;0.30;0.30;;;;;;;;;;5048696;28;20017;-84
2023/08/07 11:53:33;;;;;;;0.95;0.50;;;;;;;;;;5062584;28;20039;-87
2023/08/07 11:56:06;;;;;;;0.43;0.30;;;;;;;;;;5057342;28;20170;-85
2023/08/07 11:58:40;;;;;;;0.70;0.30;;;;;;;;;;5064545;28;20028;-85
2023/08/07 12:01:17;;;;;;;0.55;0.50;;;;;;;;;;5057205;28;20029;-85
2023/08/07 12:03:57;;;;;;;0.30;0.30;;;;;;;;;;5058511;28;20120;-84
2023/08/07 12:06:26;;;;;;;0.35;0.30;;;;;;;;;;5050740;28;20036;-86
2023/08/07 12:08:56;;;;;;;1.45;0.65;;;;;;;;;;5059748;28;20035;-85
2023/08/07 12:11:22;;;;;;;0.35;0.35;;;;;;;;;;5047378;28;20493;-83
2023/08/07 12:13:48;;;;;;;0.73;0.30;;;;;;;;;;5055457;28;20059;-84
2023/08/07 12:16:18;;;;;;;0.40;0.40;;;;;;;;;;5065299;28;20028;-85
2023/08/07 12:18:45;;;;;;;0.43;0.30;;;;;;;;;;5057230;28;20077;-83
2023/08/07 12:21:13;;;;;;;0.60;0.43;;;;;;;;;;5052225;28;20131;-84
2023/08/07 12:23:38;;;;;;;0.40;0.30;;;;;;;;;;5060434;28;20044;-83
2023/08/07 12:26:06;;;;;;;0.68;0.40;;;;;;;;;;5056171;28;20029;-84
2023/08/07 12:28:34;;;;;;;0.32;0.22;;;;;;;;;;5055717;28;20044;-84
2023/08/07 12:31:00;;;;;;;0.40;0.40;;;;;;;;;;5057585;28;20486;-85
2023/08/07 12:33:25;;;;;;;0.60;0.47;;;;;;;;;;5059574;28;20025;-89
2023/08/07 12:35:53;;;;;;;0.40;0.35;;;;;;;;;;5062634;28;20420;-93
2023/08/07 12:40:36;;;;;;;0.30;0.30;;;;;;;;;;5081524;27;20398;-85
2023/08/07 12:43:02;;;;;;;0.32;0.30;;;;;;;;;;5076010;28;20032;-86
2023/08/07 12:45:27;;;;;;;0.65;0.55;;;;;;;;;;5077831;28;20776;-86
2023/08/07 12:47:53;;;;;;;0.40;0.28;;;;;;;;;;5069035;28;20037;-85
2023/08/07 12:50:18;;;;;;;0.32;0.32;;;;;;;;;;5077899;28;20025;-85
2023/08/07 12:52:44;;;;;;;0.98;0.70;;;;;;;;;;5074582;28;20074;-86
2023/08/07 12:55:11;;;;;;;0.50;0.50;;;;;;;;;;5079443;28;20024;-88
2023/08/07 12:57:42;;;;;;;0.40;0.40;;;;;;;;;;5074401;28;20069;-88
2023/08/07 13:00:11;;;;;;;0.55;0.40;;;;;;;;;;5075776;28;20024;-85
2023/08/07 13:02:37;;;;;;;0.75;0.63;;;;;;;;;;5075199;28;20029;-84
2023/08/07 13:05:02;;;;;;;0.30;0.30;;;;;;;;;;5078115;28;20503;-86
2023/08/07 13:07:28;;;;;;;0.82;0.60;;;;;;;;;;5076339;28;20447;-86
2023/08/07 13:09:55;;;;;;;0.38;0.38;;;;;;;;;;5076720;28;20022;-86
2023/08/07 13:12:20;;;;;;;0.55;0.38;;;;;;;;;;5072911;28;20384;-86
2023/08/07 13:14:46;;;;;;;0.65;0.52;;;;;;;;;;5075589;28;20033;-86
2023/08/07 13:17:11;;;;;;;0.17;0.15;;;;;;;;;;5071136;28;20024;-88
2023/08/07 13:19:37;;;;;;;0.40;0.35;;;;;;;;;;5075475;28;20464;-86
2023/08/07 13:22:02;;;;;;;0.98;0.68;;;;;;;;;;5070747;28;20030;-89
2023/08/07 13:24:28;;;;;;;0.65;0.52;;;;;;;;;;5073384;28;20058;-86
2023/08/07 13:26:53;;;;;;;1.00;0.60;;;;;;;;;;5078844;28;20025;-85
2023/08/07 13:29:19;;;;;;;0.47;0.30;;;;;;;;;;5074192;28;20377;-82
2023/08/07 13:31:46;;;;;;;0.80;0.75;;;;;;;;;;5073301;28;20020;-86
2023/08/07 13:34:12;;;;;;;0.20;0.20;;;;;;;;;;5074980;28;20545;-85
2023/08/07 13:36:38;;;;;;;0.35;0.25;;;;;;;;;;5069826;28;20025;-87
2023/08/07 13:39:07;;;;;;;0.38;0.38;;;;;;;;;;5071920;28;20037;-84
2023/08/07 13:41:32;;;;;;;0.98;0.20;;;;;;;;;;5070649;28;20028;-88
2023/08/07 13:43:58;;;;;;;0.32;0.32;;;;;;;;;;5073414;28;20464;-88
2023/08/07 13:46:24;;;;;;;0.47;0.40;;;;;;;;;;5072624;28;20040;-83
2023/08/07 13:48:50;;;;;;;0.55;0.30;;;;;;;;;;5072321;28;20064;-85
2023/08/07 13:51:20;;;;;;;0.68;0.50;;;;;;;;;;5060616;28;20436;-87
2023/08/07 13:53:45;;;;;;;;;;;;;;;;;;5060030;28;20032;-85
2023/08/07 13:56:14;;;;;;;0.73;0.55;;;;;;;;;;5054750;28;19912;-87
2023/08/07 13:58:40;;;;;;;8.90;0.57;;;;;;;;;;5059735;28;20039;-88
2023/08/07 14:01:05;;;;;;;0.45;0.35;;;;;;;;;;5061243;28;20048;-87
2023/08/07 14:03:31;;;;;;;1.02;0.52;;;;;;;;;;5060309;28;20029;-87
2023/08/07 14:05:57;;;;;;;0.22;0.20;;;;;;;;;;5061428;28;20048;-87
2023/08/07 14:08:22;;;;;;;0.20;0.20;;;;;;;;;;5058397;28;20024;-90
2023/08/07 14:10:48;;;;;;;0.32;0.32;;;;;;;;;;5063090;28;20054;-87
2023/08/07 14:13:13;;;;;;;0.75;0.38;;;;;;;;;;5057061;28;20028;-87
2023/08/07 14:15:39;;;;;;;0.80;0.52;;;;;;;;;;5062281;28;20116;-87
2023/08/07 14:18:05;;;;;;;0.80;0.50;;;;;;;;;;5059105;28;20035;-87
2023/08/07 14:20:30;;;;;;;1.05;0.65;;;;;;;;;;5065964;28;20093;-88
2023/08/07 14:22:56;;;;;;;0.30;0.30;;;;;;;;;;5059561;28;20108;-86
2023/08/07 14:25:22;;;;;;;0.90;0.65;;;;;;;;;;5064553;28;20031;-88
2023/08/07 14:27:47;;;;;;;0.22;0.22;;;;;;;;;;5061498;28;20467;-89
2023/08/07 14:30:13;;;;;;;0.10;0.10;;;;;;;;;;5063413;28;20738;-86
2023/08/07 14:32:39;;;;;;;0.20;0.20;;;;;;;;;;5059692;28;20025;-86
2023/08/07 14:35:05;;;;;;;0.52;0.35;;;;;;;;;;5057908;28;20438;-85
2023/08/07 14:37:30;;;;;;;0.25;0.25;;;;;;;;;;5058037;28;20465;-85
2023/08/07 14:39:56;;;;;;;1.23;0.60;;;;;;;;;;5058626;28;20041;-84
2023/08/07 14:42:22;;;;;;;0.40;0.40;;;;;;;;;;5061207;28;20027;-85
2023/08/07 14:44:48;;;;;;;0.43;0.38;;;;;;;;;;5061294;28;20021;-85
2023/08/07 14:47:13;;;;;;;0.45;0.40;;;;;;;;;;5057628;28;20024;-83
2023/08/07 14:49:39;;;;;;;0.32;0.32;;;;;;;;;;5061700;28;21128;-86
2023/08/07 14:52:05;;;;;;;0.70;0.52;;;;;;;;;;5058268;28;20032;-86
2023/08/07 14:54:31;;;;;;;0.80;0.68;;;;;;;;;;5061486;28;20111;-86
2023/08/07 14:56:58;;;;;;;0.50;0.47;;;;;;;;;;5064920;28;20112;-88
2023/08/07 14:59:24;;;;;;;0.82;0.60;;;;;;;;;;5059159;28;20033;-84
2023/08/07 15:01:50;;;;;;;1.13;0.65;;;;;;;;;;5057734;28;20035;-87
2023/08/07 15:04:15;;;;;;;1.52;0.90;;;;;;;;;;5060475;28;20025;-87
2023/08/07 15:06:42;;;;;;;0.82;0.38;;;;;;;;;;5058425;28;20025;-87
2023/08/07 15:09:08;;;;;;;1.27;0.95;;;;;;;;;;5058002;28;20107;-88
2023/08/07 15:11:34;;;;;;;0.20;0.20;;;;;;;;;;5056793;28;20028;-86
2023/08/07 15:13:59;;;;;;;0.22;0.22;;;;;;;;;;5058952;28;20036;-89
2023/08/07 15:16:25;;;;;;;0.68;0.45;;;;;;;;;;5061338;28;20035;-88